^^
Your Local Weather - Clay, NY Station Historical Data
Daily Summary for May 16, 2017 Units:  English    Metric   Both
« Previous Day
Next Day »
Daily Weekly Monthly Yearly Custom
  High: Low: Average:
Temperature: 70.5 °F 42.9 °F 57.9 °F
Dew Point: 51.4 °F 40.3 °F 45.6 °F
Humidity: 92% 41% 66%
Wind Speed: 4.0mph 0.0mph 0.8mph
Wind Gust: 7.0mph - -
Wind- - WSW
Pressure: 30.03 in 29.87 in -
Precipitation: 0.00 in    
Historical Graphs
 
 
Tabular Data for May 16, 2017
Time Temperature Dew Point Pressure Wind Wind Speed Wind Gust Humidity Rainfall Rate (Hourly) solar
00:05 51.4 °F 42.7 °F 29.93 in Calm     72% 0.00 in 0 W/m2
00:12 51.1 °F 42.4 °F 29.94 in Calm     72% 0.00 in 0 W/m2
00:18 51.0 °F 42.6 °F 29.94 in Calm     73% 0.00 in 0 W/m2
00:23 50.7 °F 42.4 °F 29.94 in Calm     73% 0.00 in 0 W/m2
00:29 50.4 °F 43.1 °F 29.94 in Calm     76% 0.00 in 0 W/m2
00:35 49.9 °F 43.3 °F 29.94 in Calm     78% 0.00 in 0 W/m2
00:42 49.5 °F 42.9 °F 29.93 in Calm     78% 0.00 in 0 W/m2
00:48 49.2 °F 42.6 °F 29.93 in Calm     78% 0.00 in 0 W/m2
00:53 49.0 °F 42.4 °F 29.93 in Calm     78% 0.00 in 0 W/m2
00:59 48.7 °F 42.5 °F 29.94 in Calm     79% 0.00 in 0 W/m2
01:05 48.5 °F 42.6 °F 29.94 in Calm     80% 0.00 in 0 W/m2
01:12 48.2 °F 42.3 °F 29.93 in Calm     80% 0.00 in 0 W/m2
01:18 47.9 °F 42.3 °F 29.93 in Calm     81% 0.00 in 0 W/m2
01:23 47.6 °F 42.4 °F 29.93 in Calm     82% 0.00 in 0 W/m2
01:29 47.3 °F 42.1 °F 29.93 in Calm     82% 0.00 in 0 W/m2
01:35 47.0 °F 41.8 °F 29.93 in Calm     82% 0.00 in 0 W/m2
01:42 46.6 °F 41.4 °F 29.93 in Calm     82% 0.00 in 0 W/m2
01:48 46.6 °F 42.0 °F 29.94 in Calm     84% 0.00 in 0 W/m2
01:53 46.4 °F 41.8 °F 29.94 in Calm     84% 0.00 in 0 W/m2
01:59 46.1 °F 41.5 °F 29.93 in Calm     84% 0.00 in 0 W/m2
02:05 45.9 °F 41.3 °F 29.93 in Calm     84% 0.00 in 0 W/m2
02:11 45.7 °F 41.4 °F 29.94 in Calm     85% 0.00 in 0 W/m2
02:18 45.6 °F 41.7 °F 29.94 in Calm     86% 0.00 in 0 W/m2
02:23 45.4 °F 41.5 °F 29.94 in Calm     86% 0.00 in 0 W/m2
02:29 45.3 °F 41.7 °F 29.94 in Calm     87% 0.00 in 0 W/m2
02:35 45.1 °F 41.5 °F 29.94 in Calm     87% 0.00 in 0 W/m2
02:42 45.0 °F 41.4 °F 29.95 in Calm     87% 0.00 in 0 W/m2
02:48 44.8 °F 41.5 °F 29.96 in Calm     88% 0.00 in 0 W/m2
02:53 44.8 °F 41.5 °F 29.96 in Calm     88% 0.00 in 0 W/m2
02:59 44.7 °F 41.4 °F 29.96 in Calm     88% 0.00 in 0 W/m2
03:05 44.5 °F 41.2 °F 29.96 in Calm     88% 0.00 in 0 W/m2
03:12 44.5 °F 41.5 °F 29.96 in Calm     89% 0.00 in 0 W/m2
03:18 44.3 °F 41.3 °F 29.97 in Calm     89% 0.00 in 0 W/m2
03:23 44.2 °F 41.2 °F 29.97 in Calm     89% 0.00 in 0 W/m2
03:29 44.0 °F 41.0 °F 29.97 in Calm     89% 0.00 in 0 W/m2
03:35 44.0 °F 41.0 °F 29.98 in Calm     89% 0.00 in 0 W/m2
03:42 44.2 °F 41.2 °F 29.97 in Calm     89% 0.00 in 0 W/m2
03:48 44.4 °F 41.7 °F 29.97 in Calm     90% 0.00 in 0 W/m2
03:55 44.7 °F 41.9 °F 29.97 in Calm     90% 0.00 in 0 W/m2
04:02 44.7 °F 41.9 °F 29.97 in Calm     90% 0.00 in 0 W/m2
04:08 44.5 °F 41.7 °F 29.97 in Calm     90% 0.00 in 0 W/m2
04:13 44.5 °F 41.7 °F 29.97 in Calm     90% 0.00 in 0 W/m2
04:19 44.4 °F 41.7 °F 29.97 in Calm     90% 0.00 in 0 W/m2
04:25 44.4 °F 41.7 °F 29.97 in Calm     90% 0.00 in 0 W/m2
04:31 44.3 °F 41.6 °F 29.97 in Calm     90% 0.00 in 0 W/m2
04:38 44.2 °F 41.5 °F 29.97 in Calm     90% 0.00 in 0 W/m2
04:45 44.0 °F 41.3 °F 29.98 in Calm     90% 0.00 in 0 W/m2
04:52 43.9 °F 41.2 °F 29.97 in Calm     90% 0.00 in 0 W/m2
04:58 43.7 °F 41.0 °F 29.97 in Calm     90% 0.00 in 0 W/m2
05:03 43.6 °F 40.9 °F 29.98 in Calm     90% 0.00 in 0 W/m2
05:09 43.5 °F 40.8 °F 29.98 in Calm     90% 0.00 in 0 W/m2
05:15 43.3 °F 40.6 °F 29.98 in Calm     90% 0.00 in 0 W/m2
05:21 43.2 °F 40.5 °F 29.98 in Calm     90% 0.00 in 0 W/m2
05:28 43.0 °F 40.3 °F 29.99 in Calm     90% 0.00 in 0 W/m2
05:33 43.0 °F 40.3 °F 29.98 in Calm     90% 0.00 in 0 W/m2
05:39 43.1 °F 40.7 °F 29.98 in Calm     91% 0.00 in 5 W/m2
05:45 43.3 °F 40.8 °F 29.99 in Calm     91% 0.00 in 7 W/m2
05:52 43.3 °F 40.8 °F 29.99 in Calm     91% 0.00 in 11 W/m2
05:58 43.2 °F 40.8 °F 29.99 in Calm     91% 0.00 in 14 W/m2
06:03 43.0 °F 40.6 °F 29.98 in Calm     91% 0.00 in 18 W/m2
06:09 42.9 °F 40.5 °F 29.98 in Calm     91% 0.00 in 23 W/m2
06:15 42.9 °F 40.5 °F 29.98 in Calm     91% 0.00 in 30 W/m2
06:23 43.1 °F 40.7 °F 29.98 in Calm     91% 0.00 in 39 W/m2
06:29 43.6 °F 41.4 °F 29.99 in Calm     92% 0.00 in 109 W/m2
06:35 44.9 °F 42.7 °F 29.99 in Calm     92% 0.00 in 127 W/m2
06:42 45.6 °F 43.4 °F 29.99 in Calm     92% 0.00 in 156 W/m2
06:48 46.6 °F 44.4 °F 29.99 in Calm     92% 0.00 in 162 W/m2
06:53 47.2 °F 45.0 °F 29.99 in Calm     92% 0.00 in 176 W/m2
06:59 47.9 °F 45.7 °F 30.00 in Calm     92% 0.00 in 139 W/m2
07:05 48.5 °F 46.0 °F 30.00 in Calm     91% 0.00 in 181 W/m2
07:11 49.3 °F 46.2 °F 30.00 in Calm     89% 0.00 in 188 W/m2
07:18 49.9 °F 45.9 °F 30.01 in Calm   2.0 mph 86% 0.00 in 188 W/m2
07:23 50.3 °F 45.0 °F 30.01 in Calm   2.0 mph 82% 0.00 in 199 W/m2
07:29 50.9 °F 44.6 °F 30.02 in Calm   2.0 mph 79% 0.00 in 223 W/m2
07:35 51.5 °F 44.9 °F 30.02 in Calm   2.0 mph 78% 0.00 in 253 W/m2
07:42 52.0 °F 44.7 °F 30.02 in Calm   3.0 mph 76% 0.00 in 278 W/m2
07:48 52.4 °F 44.7 °F 30.02 in Calm   3.0 mph 75% 0.00 in 279 W/m2
07:53 52.6 °F 44.5 °F 30.02 in SW 1.0 mph 2.0 mph 74% 0.00 in 301 W/m2
07:59 53.0 °F 44.6 °F 30.02 in Calm     73% 0.00 in 343 W/m2
08:05 53.5 °F 44.7 °F 30.02 in Calm     72% 0.00 in 325 W/m2
08:12 54.0 °F 45.2 °F 30.02 in Calm     72% 0.00 in 294 W/m2
08:18 54.4 °F 44.8 °F 30.02 in Calm   2.0 mph 70% 0.00 in 320 W/m2
08:23 54.5 °F 44.5 °F 30.02 in WSW 1.0 mph 1.0 mph 69% 0.00 in 364 W/m2
08:29 54.8 °F 44.8 °F 30.02 in WSW 1.0 mph 2.0 mph 69% 0.00 in 376 W/m2
08:35 54.8 °F 44.8 °F 30.02 in SW 2.0 mph 6.0 mph 69% 0.00 in 376 W/m2
08:41 55.1 °F 44.7 °F 30.02 in WSW 2.0 mph 4.0 mph 68% 0.00 in 411 W/m2
08:48 55.4 °F 45.0 °F 30.02 in WSW 2.0 mph 4.0 mph 68% 0.00 in 454 W/m2
08:53 55.9 °F 45.1 °F 30.03 in WSW 1.0 mph 3.0 mph 67% 0.00 in 466 W/m2
08:59 56.7 °F 46.3 °F 30.03 in West 1.0 mph 3.0 mph 68% 0.00 in 497 W/m2
09:05 57.1 °F 46.2 °F 30.03 in NW 1.0 mph 3.0 mph 67% 0.00 in 513 W/m2
09:12 57.7 °F 45.6 °F 30.03 in WSW 1.0 mph 2.0 mph 64% 0.00 in 540 W/m2
09:18 58.0 °F 45.9 °F 30.02 in SW 1.0 mph 4.0 mph 64% 0.00 in 566 W/m2
09:23 57.9 °F 45.8 °F 30.02 in SSW 3.0 mph 3.0 mph 64% 0.00 in 587 W/m2
09:29 58.3 °F 47.0 °F 30.02 in South 2.0 mph 2.0 mph 66% 0.00 in 545 W/m2
09:35 59.1 °F 46.1 °F 30.02 in SSW 1.0 mph 5.0 mph 62% 0.00 in 617 W/m2
09:42 59.3 °F 46.7 °F 30.02 in WSW 1.0 mph 1.0 mph 63% 0.00 in 663 W/m2
09:48 60.0 °F 46.5 °F 30.02 in SSW 1.0 mph 3.0 mph 61% 0.00 in 650 W/m2
09:53 60.1 °F 47.0 °F 30.02 in SW 2.0 mph 2.0 mph 62% 0.00 in 598 W/m2
09:59 61.1 °F 47.1 °F 30.01 in WSW 1.0 mph 1.0 mph 60% 0.00 in 642 W/m2
10:05 60.9 °F 46.0 °F 30.01 in SSW 1.0 mph 2.0 mph 58% 0.00 in 714 W/m2
10:12 61.3 °F 46.8 °F 30.02 in SSW 1.0 mph 1.0 mph 59% 0.00 in 722 W/m2
10:18 62.1 °F 48.0 °F 30.02 in Calm   3.0 mph 60% 0.00 in 715 W/m2
10:23 61.9 °F 46.5 °F 30.01 in SW 1.0 mph 1.0 mph 57% 0.00 in 765 W/m2
10:29 62.5 °F 50.2 °F 30.01 in Calm     64% 0.00 in 840 W/m2
10:35 63.5 °F 48.0 °F 30.01 in SW 1.0 mph 2.0 mph 57% 0.00 in 854 W/m2
10:41 63.3 °F 46.9 °F 30.01 in SW 1.0 mph 1.0 mph 55% 0.00 in 476 W/m2
10:48 63.1 °F 46.7 °F 30.01 in SW 1.0 mph 1.0 mph 55% 0.00 in 619 W/m2
10:53 63.0 °F 47.1 °F 30.01 in SW 1.0 mph 2.0 mph 56% 0.00 in 459 W/m2
10:59 62.3 °F 45.4 °F 30.01 in WSW 2.0 mph 2.0 mph 54% 0.00 in 410 W/m2
11:05 62.5 °F 47.5 °F 30.01 in NNE 1.0 mph 2.0 mph 58% 0.00 in 443 W/m2
11:11 63.2 °F 45.3 °F 30.01 in Calm     52% 0.00 in 492 W/m2
11:18 63.2 °F 46.3 °F 30.01 in Calm     54% 0.00 in 519 W/m2
11:23 63.6 °F 48.1 °F 30.00 in Calm   3.0 mph 57% 0.00 in 566 W/m2
11:29 63.8 °F 48.3 °F 30.00 in SW 1.0 mph 3.0 mph 57% 0.00 in 594 W/m2
11:35 64.2 °F 47.2 °F 30.00 in SW 1.0 mph 3.0 mph 54% 0.00 in 557 W/m2
11:42 63.9 °F 47.9 °F 30.00 in South 1.0 mph 2.0 mph 56% 0.00 in 580 W/m2
11:48 64.6 °F 48.5 °F 30.01 in WSW 2.0 mph 4.0 mph 56% 0.00 in 830 W/m2
11:53 64.9 °F 46.3 °F 30.01 in WSW 1.0 mph 2.0 mph 51% 0.00 in 791 W/m2
11:59 65.0 °F 47.4 °F 30.00 in SSW 2.0 mph 2.0 mph 53% 0.00 in 867 W/m2
12:05 65.9 °F 49.3 °F 30.01 in WSW 2.0 mph 7.0 mph 55% 0.00 in 847 W/m2
12:12 65.8 °F 48.2 °F 30.01 in WSW 2.0 mph 2.0 mph 53% 0.00 in 986 W/m2
12:18 66.6 °F 49.9 °F 30.01 in NW 1.0 mph 2.0 mph 55% 0.00 in 775 W/m2
12:23 66.7 °F 46.9 °F 30.01 in WSW 1.0 mph 4.0 mph 49% 0.00 in 898 W/m2
12:29 66.8 °F 48.1 °F 30.02 in WSW 2.0 mph 2.0 mph 51% 0.00 in 953 W/m2
12:35 67.5 °F 48.7 °F 30.01 in WSW 2.0 mph 4.0 mph 51% 0.00 in 717 W/m2
12:42 67.5 °F 47.7 °F 30.01 in SW 2.0 mph 3.0 mph 49% 0.00 in 909 W/m2
12:48 67.7 °F 51.4 °F 30.02 in SW 2.0 mph 5.0 mph 56% 0.00 in 772 W/m2
12:53 67.6 °F 49.9 °F 30.02 in SW 2.0 mph 3.0 mph 53% 0.00 in 555 W/m2
12:59 66.7 °F 48.5 °F 30.02 in West 3.0 mph 3.0 mph 52% 0.00 in 584 W/m2
13:05 66.9 °F 47.1 °F 30.02 in WSW 3.0 mph 3.0 mph 49% 0.00 in 596 W/m2
13:11 67.0 °F 47.2 °F 30.02 in WNW 2.0 mph 2.0 mph 49% 0.00 in 606 W/m2
13:18 67.3 °F 49.6 °F 30.02 in NW 2.0 mph 2.0 mph 53% 0.00 in 431 W/m2
13:23 66.8 °F 45.9 °F 30.02 in NW 2.0 mph 3.0 mph 47% 0.00 in 524 W/m2
13:29 67.1 °F 48.9 °F 30.01 in NW 1.0 mph 1.0 mph 52% 0.00 in 652 W/m2
13:35 67.4 °F 47.0 °F 30.01 in WSW 2.0 mph 3.0 mph 48% 0.00 in 617 W/m2
13:42 66.9 °F 46.6 °F 30.00 in WNW 2.0 mph 3.0 mph 48% 0.00 in 612 W/m2
13:48 67.3 °F 48.0 °F 30.00 in WNW 2.0 mph 3.0 mph 50% 0.00 in 626 W/m2
13:53 67.2 °F 48.5 °F 30.00 in NNW 2.0 mph 5.0 mph 51% 0.00 in 541 W/m2
13:59 67.4 °F 50.2 °F 30.00 in SW 2.0 mph 3.0 mph 54% 0.00 in 802 W/m2
14:05 67.7 °F 48.9 °F 29.99 in SSW 3.0 mph 3.0 mph 51% 0.00 in 733 W/m2
14:12 67.5 °F 48.7 °F 29.99 in SSW 3.0 mph 4.0 mph 51% 0.00 in 471 W/m2
14:18 67.3 °F 46.9 °F 29.99 in WNW 2.0 mph 4.0 mph 48% 0.00 in 638 W/m2
14:23 67.8 °F 46.3 °F 29.99 in WSW 2.0 mph 5.0 mph 46% 0.00 in 580 W/m2
14:29 67.4 °F 45.9 °F 29.99 in WSW 3.0 mph 3.0 mph 46% 0.00 in 478 W/m2
14:35 67.3 °F 49.1 °F 29.99 in WSW 3.0 mph 4.0 mph 52% 0.00 in 480 W/m2
14:41 67.4 °F 47.6 °F 29.99 in SW 2.0 mph 4.0 mph 49% 0.00 in 396 W/m2
14:48 67.6 °F 50.4 °F 29.99 in SW 1.0 mph 4.0 mph 54% 0.00 in 432 W/m2
14:53 68.0 °F 47.6 °F 29.98 in SW 1.0 mph 3.0 mph 48% 0.00 in 499 W/m2
14:59 67.7 °F 46.7 °F 29.97 in WSW 2.0 mph 2.0 mph 47% 0.00 in 499 W/m2
15:05 68.1 °F 51.3 °F 29.97 in West 1.0 mph 2.0 mph 55% 0.00 in 478 W/m2
15:12 68.3 °F 48.4 °F 29.97 in WNW 1.0 mph 2.0 mph 49% 0.00 in 543 W/m2
15:18 68.2 °F 50.4 °F 29.97 in NW 1.0 mph 2.0 mph 53% 0.00 in 675 W/m2
15:23 68.6 °F 47.0 °F 29.97 in WNW 1.0 mph 4.0 mph 46% 0.00 in 800 W/m2
15:29 68.8 °F 47.2 °F 29.97 in SW 1.0 mph 1.0 mph 46% 0.00 in 448 W/m2
15:35 68.5 °F 46.9 °F 29.96 in SSW 1.0 mph 5.0 mph 46% 0.00 in 469 W/m2
15:41 69.6 °F 47.3 °F 29.95 in SW 2.0 mph 5.0 mph 45% 0.00 in 578 W/m2
15:48 70.2 °F 48.4 °F 29.95 in WSW 3.0 mph 5.0 mph 46% 0.00 in 573 W/m2
15:53 69.3 °F 47.0 °F 29.95 in West 2.0 mph 5.0 mph 45% 0.00 in 350 W/m2
15:59 69.2 °F 48.7 °F 29.95 in NNW 2.0 mph 2.0 mph 48% 0.00 in 561 W/m2
16:05 69.2 °F 46.9 °F 29.95 in WNW 1.0 mph 5.0 mph 45% 0.00 in 457 W/m2
16:12 69.0 °F 47.4 °F 29.95 in WNW 2.0 mph 2.0 mph 46% 0.00 in 320 W/m2
16:18 68.8 °F 48.3 °F 29.95 in West 2.0 mph 5.0 mph 48% 0.00 in 905 W/m2
16:23 69.7 °F 47.4 °F 29.95 in SW 3.0 mph 3.0 mph 45% 0.00 in 436 W/m2
16:29 69.7 °F 48.6 °F 29.94 in NW 2.0 mph 3.0 mph 47% 0.00 in 654 W/m2
16:35 70.5 °F 48.1 °F 29.94 in SW 2.0 mph 3.0 mph 45% 0.00 in 649 W/m2
16:41 69.9 °F 46.4 °F 29.94 in South 4.0 mph 4.0 mph 43% 0.00 in 603 W/m2
16:48 70.2 °F 49.6 °F 29.94 in WSW 2.0 mph 4.0 mph 48% 0.00 in 490 W/m2
16:53 69.6 °F 47.3 °F 29.94 in WSW 2.0 mph 2.0 mph 45% 0.00 in 687 W/m2
16:59 69.6 °F 47.9 °F 29.93 in SSE 3.0 mph 5.0 mph 46% 0.00 in 424 W/m2
17:05 69.3 °F 46.4 °F 29.92 in SW 3.0 mph 5.0 mph 44% 0.00 in 128 W/m2
17:11 69.2 °F 47.5 °F 29.92 in West 1.0 mph 2.0 mph 46% 0.00 in 84 W/m2
17:18 69.3 °F 46.4 °F 29.92 in West 1.0 mph 3.0 mph 44% 0.00 in 56 W/m2
17:23 69.0 °F 46.8 °F 29.92 in SW 2.0 mph 3.0 mph 45% 0.00 in 107 W/m2
17:29 69.2 °F 47.5 °F 29.92 in WSW 3.0 mph 6.0 mph 46% 0.00 in 74 W/m2
17:35 68.5 °F 46.3 °F 29.91 in SW 3.0 mph 7.0 mph 45% 0.00 in 86 W/m2
17:42 68.5 °F 45.7 °F 29.91 in SSW 3.0 mph 4.0 mph 44% 0.00 in 54 W/m2
17:48 68.1 °F 44.7 °F 29.91 in WSW 2.0 mph 6.0 mph 43% 0.00 in 146 W/m2
17:53 67.9 °F 46.3 °F 29.91 in SSE 2.0 mph 2.0 mph 46% 0.00 in 158 W/m2
17:59 68.0 °F 45.3 °F 29.90 in SSW 2.0 mph 2.0 mph 44% 0.00 in 183 W/m2
18:05 68.2 °F 44.8 °F 29.91 in SSW 3.0 mph 4.0 mph 43% 0.00 in 142 W/m2
18:12 68.1 °F 43.5 °F 29.91 in South 2.0 mph 5.0 mph 41% 0.00 in 167 W/m2
18:18 68.1 °F 45.9 °F 29.91 in WSW 2.0 mph 6.0 mph 45% 0.00 in 113 W/m2
18:23 68.1 °F 44.1 °F 29.91 in SW 2.0 mph 4.0 mph 42% 0.00 in 74 W/m2
18:29 67.7 °F 43.8 °F 29.91 in SW 2.0 mph 2.0 mph 42% 0.00 in 76 W/m2
18:35 67.4 °F 44.1 °F 29.90 in SSW 2.0 mph 4.0 mph 43% 0.00 in 118 W/m2
18:41 67.6 °F 44.3 °F 29.90 in SW 2.0 mph 3.0 mph 43% 0.00 in 141 W/m2
18:48 68.1 °F 44.1 °F 29.90 in SSE 3.0 mph 5.0 mph 42% 0.00 in 121 W/m2
18:53 68.1 °F 44.1 °F 29.90 in SSW 2.0 mph 4.0 mph 42% 0.00 in 79 W/m2
18:59 67.8 °F 43.2 °F 29.90 in South 2.0 mph 5.0 mph 41% 0.00 in 84 W/m2
19:05 67.5 °F 43.6 °F 29.90 in SSW 2.0 mph 5.0 mph 42% 0.00 in 39 W/m2
19:11 67.2 °F 43.9 °F 29.90 in SSW 1.0 mph 2.0 mph 43% 0.00 in 44 W/m2
19:18 67.0 °F 44.4 °F 29.89 in SSW 1.0 mph 2.0 mph 44% 0.00 in 54 W/m2
19:23 66.9 °F 44.3 °F 29.89 in Calm     44% 0.00 in 51 W/m2
19:29 66.8 °F 44.2 °F 29.90 in Calm     44% 0.00 in 40 W/m2
19:35 66.7 °F 44.1 °F 29.90 in Calm     44% 0.00 in 32 W/m2
19:42 66.6 °F 46.8 °F 29.90 in Calm     49% 0.00 in 21 W/m2
19:48 66.3 °F 45.5 °F 29.90 in Calm     47% 0.00 in 21 W/m2
19:53 66.1 °F 49.0 °F 29.90 in Calm     54% 0.00 in 18 W/m2
19:59 65.7 °F 49.6 °F 29.90 in Calm     56% 0.00 in 16 W/m2
20:05 65.2 °F 48.1 °F 29.89 in Calm     54% 0.00 in 12 W/m2
20:11 64.7 °F 48.6 °F 29.89 in Calm     56% 0.00 in 7 W/m2
20:18 64.2 °F 48.6 °F 29.89 in Calm     57% 0.00 in 0 W/m2
20:23 63.6 °F 48.1 °F 29.89 in Calm     57% 0.00 in 0 W/m2
20:29 62.9 °F 48.8 °F 29.89 in Calm     60% 0.00 in 0 W/m2
20:35 62.2 °F 47.2 °F 29.90 in Calm     58% 0.00 in 0 W/m2
20:41 61.5 °F 47.0 °F 29.90 in Calm     59% 0.00 in 0 W/m2
20:48 61.0 °F 48.3 °F 29.90 in Calm     63% 0.00 in 0 W/m2
20:53 60.5 °F 49.1 °F 29.90 in Calm     66% 0.00 in 0 W/m2
20:59 60.0 °F 49.4 °F 29.90 in Calm     68% 0.00 in 0 W/m2
21:05 59.3 °F 48.3 °F 29.89 in Calm     67% 0.00 in 0 W/m2
21:11 59.0 °F 48.1 °F 29.90 in Calm     67% 0.00 in 0 W/m2
21:18 58.7 °F 48.2 °F 29.90 in Calm     68% 0.00 in 0 W/m2
21:23 58.4 °F 48.7 °F 29.90 in Calm     70% 0.00 in 0 W/m2
21:29 58.3 °F 48.9 °F 29.91 in Calm     71% 0.00 in 0 W/m2
21:35 58.0 °F 47.9 °F 29.91 in Calm     69% 0.00 in 0 W/m2
21:42 58.0 °F 49.4 °F 29.91 in Calm     73% 0.00 in 0 W/m2
21:48 57.9 °F 50.0 °F 29.91 in Calm     75% 0.00 in 0 W/m2
21:53 57.9 °F 49.7 °F 29.91 in Calm     74% 0.00 in 0 W/m2
21:59 58.0 °F 50.1 °F 29.91 in Calm     75% 0.00 in 0 W/m2
22:05 58.0 °F 50.1 °F 29.91 in Calm     75% 0.00 in 0 W/m2
22:12 57.9 °F 48.9 °F 29.90 in Calm     72% 0.00 in 0 W/m2
22:18 57.8 °F 48.5 °F 29.89 in Calm     71% 0.00 in 0 W/m2
22:23 57.6 °F 48.6 °F 29.89 in Calm     72% 0.00 in 0 W/m2
22:29 57.4 °F 48.1 °F 29.89 in Calm     71% 0.00 in 0 W/m2
22:35 57.4 °F 48.1 °F 29.89 in Calm     71% 0.00 in 0 W/m2
22:41 57.2 °F 48.3 °F 29.89 in Calm     72% 0.00 in 0 W/m2
22:48 57.0 °F 47.7 °F 29.89 in Calm     71% 0.00 in 0 W/m2
22:53 56.8 °F 48.2 °F 29.88 in Calm     73% 0.00 in 0 W/m2
22:59 56.7 °F 47.4 °F 29.88 in Calm     71% 0.00 in 0 W/m2
23:05 57.2 °F 46.7 °F 29.88 in Calm   1.0 mph 68% 0.00 in 0 W/m2
23:11 57.8 °F 46.9 °F 29.88 in SE 1.0 mph 1.0 mph 67% 0.00 in 0 W/m2
23:18 57.8 °F 47.3 °F 29.88 in Calm   1.0 mph 68% 0.00 in 0 W/m2
23:23 57.6 °F 47.5 °F 29.88 in Calm     69% 0.00 in 0 W/m2
23:29 57.2 °F 47.1 °F 29.88 in Calm     69% 0.00 in 0 W/m2
23:35 56.9 °F 48.0 °F 29.88 in Calm     72% 0.00 in 0 W/m2
23:42 56.5 °F 47.6 °F 29.88 in Calm     72% 0.00 in 0 W/m2
23:48 56.2 °F 47.7 °F 29.87 in Calm     73% 0.00 in 0 W/m2
23:53 55.9 °F 48.1 °F 29.87 in Calm     75% 0.00 in 0 W/m2
23:59 55.6 °F 47.8 °F 29.87 in Calm     75% 0.00 in 0 W/m2
Country Meadow, Clay, NY, USA
Compliments of Weather Underground - 2 mb